Ashiya Air Base, Japan

11:39 PM JST on May 03, 2015 (GMT +0900)
Akama Station(JR KYUSHU RAILWAY) | | Change Station
CLOSE
Current Station
Personal Weather Station
Location: Munakata, FUKUOKA
Elevation: 33 ft
Nearby Weather Stations

Elev 33 ft 33.80 °N, 130.57 °E | Updated 1 second ago

Mostly Cloudy
Mostly Cloudy
66.2 °F
Feels Like 66.2 °F
N
9.2
Wind Variable Wind from ESE
Gusts 9.2 mph

Today
High -- | Low -- °F
--% Chance of Precip.
Yesterday
High -- | Low -- °F
Precip. -- in
5:27 AM 7:01 PM
Full, 100% visible
Pressure 29.68 in
Visibility 6.2 miles
Clouds Few 500 ft
Mostly Cloudy 2500 ft
Mostly Cloudy 3000 ft
Dew Point 65 °F
Humidity 95%
Rainfall in
Snow Depth Not available.
UV 0 out of 12
Pollen Not available.
Air Quality Not available.
Flu Activity Not available.
METAR RJFF 031430Z 13011KT 9999 FEW005 BKN025 BKN030 21/18 Q1005 RMK 1ST005 5CU025 6CU030 A2969

More Conditions Fewer Conditions

Pressure 29.68 in
Visibility 6.2 miles
Clouds Few 500 ft
Mostly Cloudy 2500 ft
Mostly Cloudy 3000 ft
Dew Point 65 °F
Humidity 95%
Rainfall in
Snow Depth Not available.
UV 0 out of 12
Pollen Not available.
Air Quality Not available.
Flu Activity Not available.
METAR RJFF 031430Z 13011KT 9999 FEW005 BKN025 BKN030 21/18 Q1005 RMK 1ST005 5CU025 6CU030 A2969

More Conditions Fewer Conditions

10-Day Weather Forecast

Almanac

Astronomy

May. 03, 2015 Rise Set
Actual Time
Civil Twilight
Nautical Twilight
Astronomical Twilight
Moon
Length of Visible Light
Length of Day
Tomorrow will be .
, % of the Moon is Illuminated

Today's Extremes

Country Highs Country Lows

Community

WunderPhotos

Upload Photos

1,818,245 photos uploaded!

WunderBlogs® & News

Nearby

Air Quality

  Air Quality AQ Index Pollutant
Not available.

Snow Depth

Station Depth Elevation

Earthquake Activity

City Distance Mag. Time & Date
Minimum magnitude displayed is 2.5.

Coastal Water Temperatures

Place Temperature

Stations

Nearby Weather Stations

Station Location Temp. Windchill Dew Point Humidity Wind Precip. Elev Updated Type